Time;durP1;ratioP1;P1;durP2;ratioP2;P2;SDS_P1;SDS_P2;PMS_P1;PMS_P2;Temp;Humidity;BMP_temperature;BMP_pressure;BME280_temperature;BME280_humidity;BME280_pressure;Samples;Min_cycle;Max_cycle;Signal;HPM_P1;HPM_P2
2023/06/03 00:01:41;;;;;;;7.28;4.13;;;;;;;;;;4991674;28;20454;-73
2023/06/03 00:04:08;;;;;;;7.55;3.08;;;;;;;;;;4992180;28;20093;-73
2023/06/03 00:06:35;;;;;;;8.45;3.47;;;;;;;;;;4975930;28;20454;-73
2023/06/03 00:09:02;;;;;;;8.48;3.33;;;;;;;;;;4991800;28;20093;-73
2023/06/03 00:11:29;;;;;;;8.27;3.58;;;;;;;;;;4996534;28;20065;-73
2023/06/03 00:13:55;;;;;;;9.73;3.47;;;;;;;;;;4991780;28;20240;-73
2023/06/03 00:16:22;;;;;;;10.55;3.08;;;;;;;;;;5007721;28;20144;-74
2023/06/03 00:18:49;;;;;;;9.70;3.67;;;;;;;;;;4991737;28;20081;-73
2023/06/03 00:21:17;;;;;;;7.35;3.17;;;;;;;;;;4991581;28;20462;-73
2023/06/03 00:23:45;;;;;;;8.25;2.92;;;;;;;;;;4975806;28;20141;-73
2023/06/03 00:26:12;;;;;;;10.18;3.33;;;;;;;;;;4991700;28;20054;-74
2023/06/03 00:28:39;;;;;;;8.35;3.42;;;;;;;;;;4991570;28;20056;-74
2023/06/03 00:31:06;;;;;;;8.60;3.58;;;;;;;;;;4991558;28;20161;-74
2023/06/03 00:33:33;;;;;;;10.70;4.30;;;;;;;;;;4991756;28;20050;-73
2023/06/03 00:36:00;;;;;;;9.27;3.35;;;;;;;;;;4991388;28;20050;-73
2023/06/03 00:38:26;;;;;;;7.07;2.78;;;;;;;;;;4991613;28;20081;-73
2023/06/03 00:40:53;;;;;;;11.05;3.55;;;;;;;;;;4975280;28;20094;-73
2023/06/03 00:43:20;;;;;;;9.82;2.95;;;;;;;;;;4991330;28;20133;-73
2023/06/03 00:45:47;;;;;;;9.80;3.00;;;;;;;;;;4991350;28;20058;-73
2023/06/03 00:48:14;;;;;;;10.68;3.67;;;;;;;;;;4991364;28;20564;-74
2023/06/03 00:50:41;;;;;;;9.98;3.72;;;;;;;;;;4975405;28;20058;-73
2023/06/03 00:53:08;;;;;;;9.82;3.40;;;;;;;;;;4991290;28;20054;-73
2023/06/03 00:55:34;;;;;;;5.78;2.92;;;;;;;;;;4991285;28;20104;-73
2023/06/03 00:58:01;;;;;;;8.13;3.33;;;;;;;;;;4975008;28;20510;-73
2023/06/03 01:00:28;;;;;;;6.05;3.00;;;;;;;;;;4991254;28;20145;-73
2023/06/03 01:02:56;;;;;;;9.45;3.20;;;;;;;;;;4991193;28;20469;-74
2023/06/03 01:05:23;;;;;;;8.90;3.00;;;;;;;;;;4991292;28;20517;-74
2023/06/03 01:08:21;;;;;;;10.45;3.20;;;;;;;;;;4975001;28;20082;-74
2023/06/03 01:10:48;;;;;;;8.60;3.45;;;;;;;;;;4991214;28;20133;-74
2023/06/03 01:13:21;;;;;;;8.57;2.85;;;;;;;;;;4991067;28;20094;-74
2023/06/03 01:15:47;;;;;;;;;;;;;;;;;;4991651;28;20137;-74
2023/06/03 01:18:16;;;;;;;5.10;3.28;;;;;;;;;;5007716;28;19925;-74
2023/06/03 01:20:43;;;;;;;8.95;3.58;;;;;;;;;;4990847;28;20109;-74
2023/06/03 01:23:28;;;;;;;9.75;3.67;;;;;;;;;;4991203;28;20058;-75
2023/06/03 01:25:58;;;;;;;10.05;3.70;;;;;;;;;;4991331;28;20089;-74
2023/06/03 01:28:27;;;;;;;12.50;3.72;;;;;;;;;;4975412;28;20511;-74
2023/06/03 01:30:55;;;;;;;9.95;3.30;;;;;;;;;;4990990;28;20133;-74
2023/06/03 01:33:22;;;;;;;11.27;3.63;;;;;;;;;;4990981;28;20506;-74
2023/06/03 01:35:50;;;;;;;11.68;4.45;;;;;;;;;;4974842;28;20116;-75
2023/06/03 01:38:17;;;;;;;8.68;3.28;;;;;;;;;;4991165;28;20137;-74
2023/06/03 01:40:44;;;;;;;8.88;3.47;;;;;;;;;;4990546;28;20046;-74
2023/06/03 01:43:11;;;;;;;8.20;3.38;;;;;;;;;;5007138;28;20086;-74
2023/06/03 01:45:38;;;;;;;7.90;3.53;;;;;;;;;;4990710;28;20112;-74
2023/06/03 01:48:05;;;;;;;10.25;3.30;;;;;;;;;;4974564;28;20058;-75
2023/06/03 01:50:32;;;;;;;6.20;3.00;;;;;;;;;;4974477;28;20054;-74
2023/06/03 01:52:59;;;;;;;8.73;3.95;;;;;;;;;;4990784;28;20058;-74
2023/06/03 01:55:25;;;;;;;11.93;3.58;;;;;;;;;;4992488;28;20061;-74
2023/06/03 01:57:52;;;;;;;8.85;3.67;;;;;;;;;;4978424;28;20229;-74
2023/06/03 02:00:19;;;;;;;8.43;3.35;;;;;;;;;;4978257;28;20054;-74
2023/06/03 02:02:47;;;;;;;8.82;3.85;;;;;;;;;;4994393;28;20495;-74
2023/06/03 02:05:14;;;;;;;8.70;3.95;;;;;;;;;;4994631;28;20058;-74
2023/06/03 02:07:40;;;;;;;9.38;3.88;;;;;;;;;;4994085;28;20089;-74
2023/06/03 02:10:07;;;;;;;9.05;3.78;;;;;;;;;;4993895;28;20061;-74
2023/06/03 02:12:34;;;;;;;13.93;4.90;;;;;;;;;;4993916;28;20058;-74
2023/06/03 02:15:01;;;;;;;8.63;3.53;;;;;;;;;;4977876;28;20055;-74
2023/06/03 02:17:28;;;;;;;11.55;4.68;;;;;;;;;;4995057;28;20050;-74
2023/06/03 02:19:56;;;;;;;10.98;3.65;;;;;;;;;;4993856;28;20054;-74
2023/06/03 02:22:23;;;;;;;10.45;3.47;;;;;;;;;;4977754;28;20160;-74
2023/06/03 02:24:50;;;;;;;14.63;4.70;;;;;;;;;;4977981;28;20112;-74
2023/06/03 02:27:24;;;;;;;11.65;4.20;;;;;;;;;;4998685;28;20055;-74
2023/06/03 02:29:52;;;;;;;8.23;3.67;;;;;;;;;;4978417;28;20054;-75
2023/06/03 02:32:19;;;;;;;6.53;3.65;;;;;;;;;;4993652;28;20050;-74
2023/06/03 02:34:48;;;;;;;12.85;3.80;;;;;;;;;;4977615;28;20054;-75
2023/06/03 02:37:15;;;;;;;10.55;3.70;;;;;;;;;;4977540;28;20138;-74
2023/06/03 02:39:43;;;;;;;7.18;3.67;;;;;;;;;;4977543;28;20109;-74
2023/06/03 02:42:10;;;;;;;10.55;3.30;;;;;;;;;;4993278;28;20062;-75
2023/06/03 02:44:37;;;;;;;12.38;4.55;;;;;;;;;;4993324;28;20057;-74
2023/06/03 02:47:04;;;;;;;8.98;3.70;;;;;;;;;;4977249;28;20105;-75
2023/06/03 02:49:31;;;;;;;5.30;2.97;;;;;;;;;;4993278;28;20050;-74
2023/06/03 02:51:58;;;;;;;11.80;3.50;;;;;;;;;;4993264;28;20051;-74
2023/06/03 02:54:25;;;;;;;8.23;3.25;;;;;;;;;;4993360;28;20474;-74
2023/06/03 02:56:52;;;;;;;11.82;3.67;;;;;;;;;;4993163;28;20058;-75
2023/06/03 02:59:19;;;;;;;5.57;3.65;;;;;;;;;;4993300;28;20046;-75
2023/06/03 03:01:46;;;;;;;8.13;3.72;;;;;;;;;;4993247;28;20105;-75
2023/06/03 03:04:13;;;;;;;7.55;3.78;;;;;;;;;;4993451;28;20454;-74
2023/06/03 03:06:40;;;;;;;11.18;3.63;;;;;;;;;;4960575;28;20054;-74
2023/06/03 03:09:07;;;;;;;11.10;3.80;;;;;;;;;;4992489;28;20050;-74
2023/06/03 03:11:34;;;;;;;8.48;3.95;;;;;;;;;;5000584;28;20152;-74
2023/06/03 03:14:02;;;;;;;8.20;4.53;;;;;;;;;;4993199;28;20090;-74
2023/06/03 03:16:29;;;;;;;9.50;3.53;;;;;;;;;;4992908;28;20085;-74
2023/06/03 03:18:56;;;;;;;9.45;3.65;;;;;;;;;;4992852;28;20101;-74
2023/06/03 03:21:22;;;;;;;11.65;4.45;;;;;;;;;;4992320;28;20054;-74
2023/06/03 03:23:49;;;;;;;8.30;3.67;;;;;;;;;;4992957;28;20058;-74
2023/06/03 03:26:21;;;;;;;9.50;3.95;;;;;;;;;;5008953;28;20061;-74
2023/06/03 03:28:48;;;;;;;10.43;3.90;;;;;;;;;;4977012;28;20494;-74
2023/06/03 03:31:16;;;;;;;10.13;3.42;;;;;;;;;;4976483;28;20101;-74
2023/06/03 03:33:43;;;;;;;6.75;3.15;;;;;;;;;;4976528;28;20515;-74
2023/06/03 03:36:13;;;;;;;11.15;4.13;;;;;;;;;;5008794;28;20058;-74
2023/06/03 03:38:40;;;;;;;15.73;3.85;;;;;;;;;;4992357;28;20054;-74
2023/06/03 03:41:07;;;;;;;11.63;4.15;;;;;;;;;;4992277;28;20046;-74
2023/06/03 03:43:34;;;;;;;7.95;3.78;;;;;;;;;;5008636;28;20506;-74
2023/06/03 03:46:02;;;;;;;11.32;3.88;;;;;;;;;;4992546;28;20460;-74
2023/06/03 03:48:32;;;;;;;12.18;4.07;;;;;;;;;;4976204;28;20047;-74
2023/06/03 03:50:59;;;;;;;5.40;3.45;;;;;;;;;;4976382;28;20101;-74
2023/06/03 03:53:29;;;;;;;8.60;3.75;;;;;;;;;;4992396;28;20566;-75
2023/06/03 03:55:57;;;;;;;8.95;3.60;;;;;;;;;;4997918;28;20097;-74
2023/06/03 03:58:40;;;;;;;8.65;4.05;;;;;;;;;;5017803;28;20039;-74
2023/06/03 04:01:18;;;;;;;9.10;4.03;;;;;;;;;;5030867;28;20045;-74
2023/06/03 04:03:46;;;;;;;13.05;4.57;;;;;;;;;;4999017;28;20042;-74
2023/06/03 04:06:32;;;;;;;10.65;5.22;;;;;;;;;;5006824;28;20129;-74
2023/06/03 04:09:00;;;;;;;13.52;4.78;;;;;;;;;;4992155;28;20491;-74
2023/06/03 04:11:28;;;;;;;9.23;3.85;;;;;;;;;;4991661;28;20526;-75
2023/06/03 04:13:55;;;;;;;6.85;4.03;;;;;;;;;;4992087;28;20125;-75
2023/06/03 04:16:31;;;;;;;9.50;5.38;;;;;;;;;;4976087;28;20058;-74
2023/06/03 04:18:58;;;;;;;17.42;7.68;;;;;;;;;;4991695;28;20057;-75
2023/06/03 04:21:25;;;;;;;15.00;8.05;;;;;;;;;;4991943;28;20113;-74
2023/06/03 04:23:52;;;;;;;19.35;8.05;;;;;;;;;;4995919;28;20058;-74
2023/06/03 04:26:19;;;;;;;14.02;8.30;;;;;;;;;;4992246;28;20411;-75
2023/06/03 04:28:46;;;;;;;11.77;7.25;;;;;;;;;;4992189;28;20120;-75
2023/06/03 04:31:13;;;;;;;17.23;6.57;;;;;;;;;;4992071;28;20117;-74
2023/06/03 04:33:40;;;;;;;11.65;5.35;;;;;;;;;;4991688;28;20050;-74
2023/06/03 04:36:07;;;;;;;18.05;5.60;;;;;;;;;;4975527;28;20054;-74
2023/06/03 04:38:34;;;;;;;13.93;5.22;;;;;;;;;;4991510;28;20458;-75
2023/06/03 04:41:02;;;;;;;9.65;4.38;;;;;;;;;;4991260;28;20062;-74
2023/06/03 04:43:29;;;;;;;7.10;4.05;;;;;;;;;;5007852;28;20058;-74
2023/06/03 04:45:56;;;;;;;7.80;4.20;;;;;;;;;;4991688;28;20096;-74
2023/06/03 04:48:22;;;;;;;12.80;4.43;;;;;;;;;;4991385;28;20465;-74
2023/06/03 04:50:50;;;;;;;9.05;3.80;;;;;;;;;;4975191;28;20112;-75
2023/06/03 04:53:18;;;;;;;9.15;3.78;;;;;;;;;;4975611;28;20183;-74
2023/06/03 04:55:45;;;;;;;8.68;3.80;;;;;;;;;;4991601;28;20137;-74
2023/06/03 04:58:12;;;;;;;9.45;5.03;;;;;;;;;;4991388;28;20557;-74
2023/06/03 05:00:41;;;;;;;10.13;5.15;;;;;;;;;;4991232;28;20470;-75
2023/06/03 05:03:09;;;;;;;9.65;3.92;;;;;;;;;;4991283;28;20059;-75
2023/06/03 05:05:41;;;;;;;5.93;4.20;;;;;;;;;;4975614;28;20093;-74
2023/06/03 05:08:10;;;;;;;6.63;3.58;;;;;;;;;;4991159;28;20495;-74
2023/06/03 05:10:37;;;;;;;8.32;3.53;;;;;;;;;;4975217;28;20100;-75
2023/06/03 05:13:05;;;;;;;11.82;4.35;;;;;;;;;;4975427;28;20065;-74
2023/06/03 05:15:33;;;;;;;11.43;4.50;;;;;;;;;;4975642;28;20445;-74
2023/06/03 05:18:01;;;;;;;7.85;4.65;;;;;;;;;;4991202;28;20466;-74
2023/06/03 05:20:30;;;;;;;12.38;4.18;;;;;;;;;;4975072;28;20080;-75
2023/06/03 05:22:57;;;;;;;7.90;4.28;;;;;;;;;;4991358;28;20054;-74
2023/06/03 05:25:23;;;;;;;12.05;4.22;;;;;;;;;;4990993;28;20054;-74
2023/06/03 05:27:50;;;;;;;10.88;3.92;;;;;;;;;;4995496;28;20059;-74
2023/06/03 05:30:29;;;;;;;7.93;3.78;;;;;;;;;;4977407;28;20066;-74
2023/06/03 05:32:56;;;;;;;6.15;2.85;;;;;;;;;;4994798;28;20073;-74
2023/06/03 05:35:23;;;;;;;9.68;3.78;;;;;;;;;;4995060;28;20284;-74
2023/06/03 05:37:50;;;;;;;6.45;3.45;;;;;;;;;;4994618;28;20584;-74
2023/06/03 05:40:17;;;;;;;9.55;4.00;;;;;;;;;;4994438;28;20085;-74
2023/06/03 05:42:47;;;;;;;10.65;4.05;;;;;;;;;;4994581;28;20499;-74
2023/06/03 05:45:15;;;;;;;7.40;3.40;;;;;;;;;;4994896;28;20058;-74
2023/06/03 05:47:42;;;;;;;8.02;4.05;;;;;;;;;;4978685;28;20054;-74
2023/06/03 05:50:09;;;;;;;6.72;3.30;;;;;;;;;;4994453;28;20077;-74
2023/06/03 05:52:36;;;;;;;5.70;2.95;;;;;;;;;;4994335;28;20143;-74
2023/06/03 05:55:03;;;;;;;9.00;4.13;;;;;;;;;;4994528;28;20062;-75
2023/06/03 05:57:30;;;;;;;8.82;4.03;;;;;;;;;;4994459;28;20061;-74
2023/06/03 05:59:56;;;;;;;8.10;4.05;;;;;;;;;;4977988;28;20116;-74
2023/06/03 06:02:23;;;;;;;11.02;3.42;;;;;;;;;;4994262;28;20050;-74
2023/06/03 06:04:50;;;;;;;9.27;3.97;;;;;;;;;;4994248;28;20054;-75
2023/06/03 06:07:17;;;;;;;8.48;3.60;;;;;;;;;;4994436;28;20419;-74
2023/06/03 06:09:44;;;;;;;10.73;4.03;;;;;;;;;;4993681;28;20046;-74
2023/06/03 06:12:11;;;;;;;8.20;3.95;;;;;;;;;;5003834;28;20538;-75
2023/06/03 06:14:38;;;;;;;8.25;3.47;;;;;;;;;;4979538;28;20054;-74
2023/06/03 06:17:05;;;;;;;11.27;3.50;;;;;;;;;;4979518;28;20058;-74
2023/06/03 06:19:35;;;;;;;5.30;3.13;;;;;;;;;;4995582;28;20050;-74
2023/06/03 06:22:02;;;;;;;7.47;3.40;;;;;;;;;;4977861;28;20104;-74
2023/06/03 06:24:28;;;;;;;12.45;4.72;;;;;;;;;;4994076;28;20054;-74
2023/06/03 06:26:55;;;;;;;11.88;4.25;;;;;;;;;;4994061;28;20054;-74
2023/06/03 06:29:23;;;;;;;8.07;4.03;;;;;;;;;;4995031;28;20050;-74
2023/06/03 06:31:51;;;;;;;10.15;4.15;;;;;;;;;;4993677;28;20526;-74
2023/06/03 06:34:18;;;;;;;9.60;3.85;;;;;;;;;;5064598;23;20050;-82
2023/06/03 06:36:49;;;;;;;10.70;3.90;;;;;;;;;;4998831;28;20062;-82
2023/06/03 06:39:38;;;;;;;7.63;4.35;;;;;;;;;;4982133;28;20051;-82
2023/06/03 06:42:27;;;;;;;8.43;3.67;;;;;;;;;;4994489;28;20466;-82
2023/06/03 06:44:53;;;;;;;8.38;3.85;;;;;;;;;;4994594;28;20089;-82
2023/06/03 06:47:27;;;;;;;8.43;3.42;;;;;;;;;;4978943;28;20058;-82
2023/06/03 06:49:56;;;;;;;7.32;3.42;;;;;;;;;;4978979;28;20054;-82
2023/06/03 06:52:26;;;;;;;5.90;3.20;;;;;;;;;;4981286;28;20082;-82
2023/06/03 06:54:54;;;;;;;7.13;3.80;;;;;;;;;;5021209;28;20054;-82
2023/06/03 06:57:23;;;;;;;10.43;3.78;;;;;;;;;;4971747;28;20064;-82
2023/06/03 06:59:53;;;;;;;10.65;4.50;;;;;;;;;;5018086;28;20054;-82
2023/06/03 07:02:20;;;;;;;7.40;3.70;;;;;;;;;;4980462;28;20054;-82
2023/06/03 07:04:50;;;;;;;5.88;3.38;;;;;;;;;;4964557;28;20137;-82
2023/06/03 07:07:17;;;;;;;10.57;3.05;;;;;;;;;;4964897;28;20046;-82
2023/06/03 07:09:44;;;;;;;8.30;3.70;;;;;;;;;;4980175;28;20050;-82
2023/06/03 07:12:11;;;;;;;6.88;4.03;;;;;;;;;;4997646;28;20058;-82
2023/06/03 07:14:38;;;;;;;7.70;4.00;;;;;;;;;;4997913;28;20054;-82
2023/06/03 07:17:05;;;;;;;9.05;3.72;;;;;;;;;;5000750;28;20058;-82
2023/06/03 07:19:39;;;;;;;6.45;3.55;;;;;;;;;;4994159;28;20057;-82
2023/06/03 07:22:06;;;;;;;7.75;3.92;;;;;;;;;;4994779;28;20077;-82
2023/06/03 07:24:35;;;;;;;9.48;2.85;;;;;;;;;;4979511;28;20059;-82
2023/06/03 07:27:06;;;;;;;8.13;3.33;;;;;;;;;;4963802;28;20054;-82
2023/06/03 07:29:37;;;;;;;9.32;3.75;;;;;;;;;;4980155;28;20054;-82
2023/06/03 07:32:07;;;;;;;5.97;3.88;;;;;;;;;;4964657;28;20054;-82
2023/06/03 07:34:36;;;;;;;6.57;2.90;;;;;;;;;;4965403;28;20137;-82
2023/06/03 07:37:07;;;;;;;6.25;3.38;;;;;;;;;;4966274;28;20132;-82
2023/06/03 07:39:34;;;;;;;8.40;3.65;;;;;;;;;;4981771;28;20050;-82
2023/06/03 07:42:01;;;;;;;8.73;3.13;;;;;;;;;;4965491;28;20462;-82
2023/06/03 07:44:31;;;;;;;5.90;3.28;;;;;;;;;;4997951;28;20046;-82
2023/06/03 07:46:58;;;;;;;10.05;3.15;;;;;;;;;;4997974;28;20081;-82
2023/06/03 07:49:24;;;;;;;6.78;3.20;;;;;;;;;;5014126;28;20046;-82
2023/06/03 07:51:52;;;;;;;10.35;3.63;;;;;;;;;;4966210;28;20054;-82
2023/06/03 07:54:19;;;;;;;7.18;3.75;;;;;;;;;;4966093;28;20094;-82
2023/06/03 07:56:46;;;;;;;7.78;2.97;;;;;;;;;;4986764;28;20395;-80
2023/06/03 07:59:14;;;;;;;14.23;4.70;;;;;;;;;;4975602;28;20129;-80
2023/06/03 08:01:42;;;;;;;8.45;3.75;;;;;;;;;;4987247;28;20050;-80
2023/06/03 08:04:21;;;;;;;8.40;3.45;;;;;;;;;;5002697;28;20054;-81
2023/06/03 08:06:52;;;;;;;6.93;3.47;;;;;;;;;;5000385;28;20110;-81
2023/06/03 08:09:23;;;;;;;8.50;3.30;;;;;;;;;;4984677;28;20050;-81
2023/06/03 08:11:50;;;;;;;5.93;3.50;;;;;;;;;;5001786;28;20058;-81
2023/06/03 08:14:19;;;;;;;8.18;4.13;;;;;;;;;;4984642;28;20088;-80
2023/06/03 08:16:46;;;;;;;8.07;3.22;;;;;;;;;;4986642;28;20484;-81
2023/06/03 08:19:13;;;;;;;9.48;3.70;;;;;;;;;;5018138;28;20050;-81
2023/06/03 08:21:41;;;;;;;6.30;3.40;;;;;;;;;;4970228;28;20058;-82
2023/06/03 08:24:09;;;;;;;9.05;3.50;;;;;;;;;;4984741;28;20081;-81
2023/06/03 08:26:38;;;;;;;6.30;4.05;;;;;;;;;;4983827;28;20112;-82
2023/06/03 08:29:05;;;;;;;9.55;4.43;;;;;;;;;;4987744;28;20466;-81
2023/06/03 08:31:32;;;;;;;6.22;3.15;;;;;;;;;;4973624;28;20057;-81
2023/06/03 08:34:01;;;;;;;6.30;3.53;;;;;;;;;;4988446;28;20055;-81
2023/06/03 08:36:29;;;;;;;7.38;3.50;;;;;;;;;;4989005;28;20065;-81
2023/06/03 08:38:56;;;;;;;8.32;4.13;;;;;;;;;;4989104;28;20104;-81
2023/06/03 08:41:25;;;;;;;8.77;3.60;;;;;;;;;;5000201;28;20046;-81
2023/06/03 08:43:59;;;;;;;6.93;3.40;;;;;;;;;;4966886;28;20065;-82
2023/06/03 08:47:00;;;;;;;6.80;3.28;;;;;;;;;;5004001;28;20081;-81
2023/06/03 08:49:40;;;;;;;5.90;3.45;;;;;;;;;;4975127;28;20061;-82
2023/06/03 08:52:09;;;;;;;7.00;3.33;;;;;;;;;;4994072;28;20462;-82
2023/06/03 08:54:36;;;;;;;4.95;3.00;;;;;;;;;;4993697;28;20050;-81
2023/06/03 08:57:06;;;;;;;7.38;3.10;;;;;;;;;;4994762;28;20062;-82
2023/06/03 08:59:33;;;;;;;8.35;3.40;;;;;;;;;;4979745;28;20121;-82
2023/06/03 09:02:00;;;;;;;8.57;3.35;;;;;;;;;;4995422;28;20073;-81
2023/06/03 09:04:27;;;;;;;9.23;3.72;;;;;;;;;;4979606;28;20077;-82
2023/06/03 09:06:56;;;;;;;8.00;3.92;;;;;;;;;;4967147;28;20430;-81
2023/06/03 09:09:23;;;;;;;6.72;3.63;;;;;;;;;;4994481;28;20050;-81
2023/06/03 09:11:49;;;;;;;4.18;3.35;;;;;;;;;;5007700;28;20054;-81
2023/06/03 09:14:17;;;;;;;6.22;3.53;;;;;;;;;;4991954;28;20085;-81
2023/06/03 09:16:44;;;;;;;7.40;3.80;;;;;;;;;;4978425;28;20593;-81
2023/06/03 09:19:11;;;;;;;7.55;3.75;;;;;;;;;;4977139;28;20050;-81
2023/06/03 09:21:42;;;;;;;9.30;4.22;;;;;;;;;;4973630;28;20410;-81
2023/06/03 09:24:10;;;;;;;11.35;4.53;;;;;;;;;;4990914;28;20418;-81
2023/06/03 09:26:37;;;;;;;6.28;3.80;;;;;;;;;;4974282;28;20063;-81
2023/06/03 09:29:06;;;;;;;8.52;3.63;;;;;;;;;;5005600;28;20058;-81
2023/06/03 09:31:33;;;;;;;6.35;3.40;;;;;;;;;;4990506;28;20050;-81
2023/06/03 09:34:01;;;;;;;5.82;3.85;;;;;;;;;;4991505;28;20474;-81
2023/06/03 09:36:28;;;;;;;7.20;4.15;;;;;;;;;;4981807;28;20085;-82
2023/06/03 09:38:56;;;;;;;9.73;3.90;;;;;;;;;;4987711;28;20588;-82
2023/06/03 09:41:26;;;;;;;5.97;3.78;;;;;;;;;;4993414;28;20062;-81
2023/06/03 09:44:06;;;;;;;6.70;3.70;;;;;;;;;;4986945;28;20060;-81
2023/06/03 09:46:33;;;;;;;6.35;3.65;;;;;;;;;;4989349;28;20057;-81
2023/06/03 09:49:17;;;;;;;10.57;3.92;;;;;;;;;;4971688;28;20058;-81
2023/06/03 09:51:58;;;;;;;9.98;4.13;;;;;;;;;;5004645;28;20046;-81
2023/06/03 09:54:25;;;;;;;7.03;3.25;;;;;;;;;;4989025;28;20112;-82
2023/06/03 09:56:52;;;;;;;6.90;3.60;;;;;;;;;;4973563;28;20054;-81
2023/06/03 09:59:25;;;;;;;5.68;4.20;;;;;;;;;;5005650;28;20058;-82
2023/06/03 10:01:53;;;;;;;9.85;4.07;;;;;;;;;;5006244;28;20466;-81
2023/06/03 10:04:33;;;;;;;6.78;3.60;;;;;;;;;;4973316;28;20054;-81
2023/06/03 10:07:18;;;;;;;9.02;4.05;;;;;;;;;;4974606;28;20058;-81
2023/06/03 10:09:46;;;;;;;7.45;3.40;;;;;;;;;;4972323;28;20058;-81
2023/06/03 10:12:14;;;;;;;4.95;3.53;;;;;;;;;;4972342;28;20058;-81
2023/06/03 10:14:49;;;;;;;6.32;3.90;;;;;;;;;;4971983;28;20356;-81
2023/06/03 10:17:17;;;;;;;9.27;4.15;;;;;;;;;;5003371;28;20050;-81
2023/06/03 10:19:45;;;;;;;8.85;4.03;;;;;;;;;;4971881;28;20051;-81
2023/06/03 10:22:17;;;;;;;3.65;3.15;;;;;;;;;;4971586;28;20053;-81
2023/06/03 10:24:49;;;;;;;7.25;3.35;;;;;;;;;;4987983;28;20058;-81
2023/06/03 10:27:17;;;;;;;7.85;4.00;;;;;;;;;;5004035;28;20058;-81
2023/06/03 10:29:44;;;;;;;6.25;3.70;;;;;;;;;;4971965;28;20054;-81
2023/06/03 10:32:14;;;;;;;6.97;3.78;;;;;;;;;;5003194;28;20419;-81
2023/06/03 10:34:43;;;;;;;6.38;3.53;;;;;;;;;;4988277;28;20050;-81
2023/06/03 10:37:13;;;;;;;5.97;3.90;;;;;;;;;;4971159;28;20120;-81
2023/06/03 10:39:43;;;;;;;8.27;4.35;;;;;;;;;;4987454;28;20051;-81
2023/06/03 10:42:11;;;;;;;7.28;3.92;;;;;;;;;;4972090;28;20058;-80
2023/06/03 10:44:39;;;;;;;6.35;4.13;;;;;;;;;;4971658;28;20054;-81
2023/06/03 10:47:41;;;;;;;6.07;3.90;;;;;;;;;;5000665;28;20062;-81
2023/06/03 10:50:32;;;;;;;7.35;3.90;;;;;;;;;;4994752;28;20054;-81
2023/06/03 10:53:15;;;;;;;7.22;3.55;;;;;;;;;;4998605;28;20058;-81
2023/06/03 10:56:10;;;;;;;7.45;3.58;;;;;;;;;;4998710;28;20097;-81
2023/06/03 10:58:37;;;;;;;8.50;4.22;;;;;;;;;;4982930;28;20098;-81
2023/06/03 11:01:04;;;;;;;6.53;4.05;;;;;;;;;;4983975;28;20133;-81
2023/06/03 11:03:51;;;;;;;10.10;4.22;;;;;;;;;;5000396;28;20050;-81
2023/06/03 11:06:18;;;;;;;8.57;3.70;;;;;;;;;;5000512;28;20054;-81
2023/06/03 11:09:05;;;;;;;4.50;3.63;;;;;;;;;;4999037;28;20057;-81
2023/06/03 11:11:41;;;;;;;5.38;3.75;;;;;;;;;;4984255;28;20050;-81
2023/06/03 11:14:09;;;;;;;6.13;3.78;;;;;;;;;;4999381;28;20050;-81
2023/06/03 11:16:57;;;;;;;7.60;4.47;;;;;;;;;;4983322;28;20081;-81
2023/06/03 11:19:33;;;;;;;6.70;4.28;;;;;;;;;;5000677;28;20122;-81
2023/06/03 11:22:01;;;;;;;7.93;4.28;;;;;;;;;;4998665;28;20133;-81
2023/06/03 11:24:41;;;;;;;4.63;4.18;;;;;;;;;;4983647;28;20062;-81
2023/06/03 11:27:14;;;;;;;11.25;4.43;;;;;;;;;;5001018;28;20553;-81
2023/06/03 11:29:47;;;;;;;6.15;4.45;;;;;;;;;;5000643;28;20454;-81
2023/06/03 11:32:21;;;;;;;9.63;3.97;;;;;;;;;;5001439;28;20050;-81
2023/06/03 11:35:04;;;;;;;5.68;3.88;;;;;;;;;;4969685;28;20057;-81
2023/06/03 11:37:40;;;;;;;5.15;4.03;;;;;;;;;;5000651;28;20068;-81
2023/06/03 11:40:09;;;;;;;6.53;3.80;;;;;;;;;;5000622;28;20223;-81
2023/06/03 11:42:47;;;;;;;5.55;3.97;;;;;;;;;;5000289;28;20526;-80
2023/06/03 11:45:21;;;;;;;5.53;3.90;;;;;;;;;;5000453;28;20050;-80
2023/06/03 11:48:01;;;;;;;6.45;3.80;;;;;;;;;;5002318;28;20141;-80
2023/06/03 11:50:32;;;;;;;6.25;3.83;;;;;;;;;;4986665;28;20050;-80
2023/06/03 11:53:00;;;;;;;9.20;4.45;;;;;;;;;;5002085;28;20058;-80
2023/06/03 11:55:32;;;;;;;9.13;4.18;;;;;;;;;;4970576;28;20074;-80
2023/06/03 11:58:09;;;;;;;11.18;4.47;;;;;;;;;;4970649;28;20058;-80
2023/06/03 12:00:37;;;;;;;8.65;3.83;;;;;;;;;;4987949;28;20058;-80
2023/06/03 12:03:05;;;;;;;7.60;4.30;;;;;;;;;;4984933;28;20061;-81
2023/06/03 12:05:32;;;;;;;5.53;4.00;;;;;;;;;;4997273;28;20062;-80
2023/06/03 12:07:59;;;;;;;5.68;3.97;;;;;;;;;;4981421;28;20522;-81
2023/06/03 12:10:27;;;;;;;5.57;3.70;;;;;;;;;;5010070;28;20149;-81
2023/06/03 12:12:55;;;;;;;7.18;4.60;;;;;;;;;;4978783;28;20050;-80
2023/06/03 12:15:23;;;;;;;8.05;3.63;;;;;;;;;;4996379;28;20060;-81
2023/06/03 12:17:50;;;;;;;5.65;3.60;;;;;;;;;;4997366;28;20054;-81
2023/06/03 12:20:27;;;;;;;7.85;4.45;;;;;;;;;;4963126;28;20466;-80
2023/06/03 12:23:01;;;;;;;7.35;3.92;;;;;;;;;;4994527;28;20054;-81
2023/06/03 12:25:28;;;;;;;10.75;4.18;;;;;;;;;;4977997;28;20109;-81
2023/06/03 12:27:56;;;;;;;4.82;3.60;;;;;;;;;;4978204;28;20081;-81
2023/06/03 12:30:33;;;;;;;6.75;3.78;;;;;;;;;;4993148;28;20511;-81
2023/06/03 12:33:04;;;;;;;5.35;3.42;;;;;;;;;;4993894;28;20058;-81
2023/06/03 12:35:31;;;;;;;8.40;4.03;;;;;;;;;;5053962;23;20052;-73
2023/06/03 12:38:08;;;;;;;5.40;3.67;;;;;;;;;;5007637;28;20098;-73
2023/06/03 12:40:36;;;;;;;8.13;3.88;;;;;;;;;;4991166;28;20704;-73
2023/06/03 12:43:03;;;;;;;7.55;3.72;;;;;;;;;;4991618;28;20238;-73
2023/06/03 12:45:30;;;;;;;8.57;3.88;;;;;;;;;;4977901;28;20058;-73
2023/06/03 12:47:56;;;;;;;7.78;3.60;;;;;;;;;;4991789;28;20108;-73
2023/06/03 12:50:30;;;;;;;6.40;3.40;;;;;;;;;;4991188;28;20086;-73
2023/06/03 12:53:14;;;;;;;4.97;3.80;;;;;;;;;;4975442;28;20059;-73
2023/06/03 12:55:41;;;;;;;7.40;3.35;;;;;;;;;;4975528;28;20057;-73
2023/06/03 12:58:08;;;;;;;6.32;3.45;;;;;;;;;;4991389;28;20061;-73
2023/06/03 13:00:34;;;;;;;6.57;3.72;;;;;;;;;;4991583;28;20104;-73
2023/06/03 13:03:01;;;;;;;9.00;4.20;;;;;;;;;;4991526;28;20094;-73
2023/06/03 13:05:28;;;;;;;4.97;3.47;;;;;;;;;;4991591;28;20486;-72
2023/06/03 13:07:55;;;;;;;8.75;3.53;;;;;;;;;;4975458;28;20105;-73
2023/06/03 13:10:22;;;;;;;6.10;3.60;;;;;;;;;;4990977;28;20105;-73
2023/06/03 13:12:48;;;;;;;4.07;3.53;;;;;;;;;;4991334;28;20458;-73
2023/06/03 13:15:16;;;;;;;3.72;3.35;;;;;;;;;;4991111;28;20054;-73
2023/06/03 13:17:43;;;;;;;6.30;3.47;;;;;;;;;;4975452;28;20054;-73
2023/06/03 13:20:11;;;;;;;7.78;3.45;;;;;;;;;;4991171;28;20088;-73
2023/06/03 13:22:39;;;;;;;6.65;3.65;;;;;;;;;;4991049;28;20732;-73
2023/06/03 13:25:06;;;;;;;7.60;3.78;;;;;;;;;;4991151;28;20055;-73
2023/06/03 13:27:33;;;;;;;5.95;3.78;;;;;;;;;;4975147;28;20177;-73
2023/06/03 13:30:00;;;;;;;6.28;4.10;;;;;;;;;;4991000;28;20050;-73
2023/06/03 13:32:27;;;;;;;5.03;3.40;;;;;;;;;;4991481;28;20087;-73
2023/06/03 13:34:55;;;;;;;5.35;3.80;;;;;;;;;;4991011;28;20100;-73
2023/06/03 13:37:22;;;;;;;4.50;3.58;;;;;;;;;;5007166;28;20466;-73
2023/06/03 13:39:49;;;;;;;7.15;3.72;;;;;;;;;;4975191;28;20073;-73
2023/06/03 13:42:16;;;;;;;4.88;3.58;;;;;;;;;;4990896;28;20106;-73
2023/06/03 13:44:42;;;;;;;5.05;3.72;;;;;;;;;;4991213;28;20117;-72
2023/06/03 13:47:09;;;;;;;5.88;3.83;;;;;;;;;;4991160;28;20054;-72
2023/06/03 13:49:36;;;;;;;5.15;4.20;;;;;;;;;;4992101;28;20060;-73
2023/06/03 13:52:04;;;;;;;5.40;3.58;;;;;;;;;;4992406;28;20474;-73
2023/06/03 13:54:31;;;;;;;4.95;3.50;;;;;;;;;;4978501;28;20499;-73
2023/06/03 13:56:57;;;;;;;5.40;3.75;;;;;;;;;;4994477;28;20104;-73
2023/06/03 13:59:25;;;;;;;5.10;3.40;;;;;;;;;;4994435;28;20499;-73
2023/06/03 14:01:52;;;;;;;4.53;3.42;;;;;;;;;;4994363;28;20058;-73
2023/06/03 14:04:19;;;;;;;5.50;3.08;;;;;;;;;;4978455;28;20520;-73
2023/06/03 14:06:51;;;;;;;6.45;4.00;;;;;;;;;;4994592;28;20061;-73
2023/06/03 14:09:18;;;;;;;6.53;3.63;;;;;;;;;;5010525;28;20062;-73
2023/06/03 14:11:45;;;;;;;9.32;4.75;;;;;;;;;;4993948;28;20353;-73
2023/06/03 14:14:12;;;;;;;7.20;3.40;;;;;;;;;;5010382;28;20061;-73
2023/06/03 14:16:43;;;;;;;6.88;4.47;;;;;;;;;;4994085;28;20054;-73
2023/06/03 14:19:11;;;;;;;5.28;3.78;;;;;;;;;;4978919;28;20058;-73
2023/06/03 14:21:38;;;;;;;4.72;3.50;;;;;;;;;;4993828;28;20057;-73
2023/06/03 14:24:05;;;;;;;5.25;3.47;;;;;;;;;;4993953;28;20054;-73
2023/06/03 14:26:35;;;;;;;6.25;3.45;;;;;;;;;;4994124;28;20065;-73
2023/06/03 14:29:07;;;;;;;6.20;3.40;;;;;;;;;;4994795;28;20057;-73
2023/06/03 14:31:34;;;;;;;7.18;4.95;;;;;;;;;;4993720;28;20058;-73
2023/06/03 14:34:02;;;;;;;3.65;3.25;;;;;;;;;;4993874;28;20050;-73
2023/06/03 14:36:28;;;;;;;3.75;3.35;;;;;;;;;;4993972;28;20055;-73
2023/06/03 14:38:55;;;;;;;4.85;3.38;;;;;;;;;;4993672;28;20054;-73
2023/06/03 14:41:22;;;;;;;6.25;3.55;;;;;;;;;;4994158;28;20495;-73
2023/06/03 14:43:49;;;;;;;5.07;3.33;;;;;;;;;;4993952;28;20054;-73
2023/06/03 14:46:16;;;;;;;5.18;3.40;;;;;;;;;;4993916;28;20100;-73
2023/06/03 14:48:46;;;;;;;6.80;3.63;;;;;;;;;;4993767;28;20069;-73
2023/06/03 14:51:13;;;;;;;4.70;3.28;;;;;;;;;;4994209;28;20054;-73
2023/06/03 14:53:41;;;;;;;5.53;3.25;;;;;;;;;;5004388;28;20046;-72